Vilsbiburg Airport EDMP

Flugplatz Daten

Name: Vilsbiburg Airport

Ident: EDMP

Lat: 48,42610931

Long: 12,34527779

Platzhöhe: 1450 ft

IataCode:

City: Vilsbiburg

Metar

2020/12/12 23:00
VOBL 122300Z VRB01KT 0500 R27L/2000 R09R/2000 FG BKN003 SCT012 17/17 Q1016 TEDMPO 0300 FG

Taf

Gewünschte Webcam nicht vorhanden? Dann fügen Sie eine hinzu. Sie wird dann so schnell wie möglich freigeschaltet
Url: Title: